Latonia, Mississippi
Current Conditions -  °F | °C
As of 2:36 AM on Sunday 21 Dec 2014 (Local Time) from KMOB Reporting Station
Overcast Overcast  
Wind Chill: 46°   Ceiling: 2400
Heat Index: 49°   Visibility: 8mi
Dew Point: 47°   Wind: 7mph
Humidity: 93%   Direction: 40°NE
Pressure: 30.13"   Gusts: NA
Location:  30.8443°N, 88.5703°W
Report Text: KMOB 210836Z AUTO 04006KT 8SM SCT006 OVC024 09/08 A3013 RMK AO2 T00940083 $
Loading
Personal Weather Stations






























Interactive Weather Map New forecast layout! Learn more

10-Day Weather Forecast

Advertisements
Track Severe Weather on mobile